RYR7LX LIPE-EBCI
Flight info
| Callsign | RYR7LX |
|---|---|
| Flight time | N/A |
| Altitude | 28000 |
| Route | LUMAV L12 VIC DCT UNIMI DCT MOGTI DCT KPT L608 TEDGO DCT IDOVI Z104 GESLO N852 LNO |
| Aircraft | B738/M-SDE2E3FGHIRWXY/LB1 |
Departure
| Time | N/A |
|---|---|
| Airport | Bologna Guglielmo Marconi Airport (LIPE) |
Arrival
| Time | 2026-04-30 18:14 |
|---|---|
| Airport | Brussels South Charleroi Airport (EBCI) |
| Time | Latitude | Longitude | Altitude | Speed | Heading |
|---|---|---|---|---|---|
| 2026-04-30 17:39 | 49.00325 | 8.75529 | 28282 ft | 474 kts | 323° |
| 2026-04-30 17:42 | 49.25215 | 8.42410 | 28298 ft | 475 kts | 322° |
| 2026-04-30 17:43 | 49.37629 | 8.25716 | 28299 ft | 476 kts | 322° |
| 2026-04-30 17:44 | 49.52545 | 8.05504 | 28292 ft | 475 kts | 322° |
| 2026-04-30 17:47 | 49.74779 | 7.75056 | 28309 ft | 476 kts | 322° |
| 2026-04-30 17:48 | 49.92016 | 7.51179 | 28318 ft | 477 kts | 321° |
| 2026-04-30 17:50 | 50.08394 | 7.19949 | 28157 ft | 494 kts | 275° |
| 2026-04-30 17:51 | 50.08872 | 7.03714 | 27386 ft | 500 kts | 274° |
| 2026-04-30 17:52 | 50.10124 | 6.87594 | 26616 ft | 499 kts | 282° |
| 2026-04-30 17:53 | 50.13473 | 6.61064 | 25350 ft | 501 kts | 281° |
| 2026-04-30 17:54 | 50.15941 | 6.39872 | 24396 ft | 496 kts | 281° |
| 2026-04-30 17:55 | 50.18283 | 6.19399 | 22377 ft | 460 kts | 280° |
| 2026-04-30 17:56 | 50.20455 | 6.00167 | 19489 ft | 458 kts | 280° |
| 2026-04-30 17:57 | 50.22073 | 5.85632 | 17546 ft | 449 kts | 279° |
| 2026-04-30 17:58 | 50.23588 | 5.71855 | 17250 ft | 403 kts | 279° |
| 2026-04-30 17:59 | 50.25410 | 5.55081 | 15242 ft | 396 kts | 279° |
| 2026-04-30 18:00 | 50.27284 | 5.37573 | 12280 ft | 400 kts | 279° |
| 2026-04-30 18:00 | 50.28571 | 5.25416 | 11946 ft | 357 kts | 279° |
| 2026-04-30 18:01 | 50.29343 | 5.18062 | 11764 ft | 333 kts | 278° |
| 2026-04-30 18:02 | 50.30395 | 5.07948 | 11050 ft | 302 kts | 278° |
| 2026-04-30 18:02 | 50.31392 | 4.98277 | 10193 ft | 298 kts | 277° |
| 2026-04-30 18:03 | 50.32362 | 4.88796 | 9276 ft | 294 kts | 277° |
| 2026-04-30 18:04 | 50.33286 | 4.79676 | 8263 ft | 291 kts | 277° |
| 2026-04-30 18:05 | 50.34530 | 4.67295 | 7171 ft | 287 kts | 277° |
| 2026-04-30 18:06 | 50.35728 | 4.55266 | 6490 ft | 260 kts | 276° |
| 2026-04-30 18:07 | 50.35696 | 4.45223 | 5685 ft | 216 kts | 262° |
| 2026-04-30 18:08 | 50.35489 | 4.38569 | 4878 ft | 200 kts | 262° |
| 2026-04-30 18:09 | 50.35267 | 4.29894 | 3529 ft | 202 kts | 262° |
| 2026-04-30 18:10 | 50.38352 | 4.24043 | 3397 ft | 192 kts | 12° |
| 2026-04-30 18:11 | 50.41338 | 4.29336 | 2691 ft | 149 kts | 70° |
| 2026-04-30 18:11 | 50.42575 | 4.33514 | 2150 ft | 140 kts | 72° |
| 2026-04-30 18:12 | 50.43791 | 4.37749 | 1532 ft | 139 kts | 71° |
| 2026-04-30 18:13 | 50.44613 | 4.40489 | 1011 ft | 137 kts | 69° |
| 2026-04-30 18:13 | 50.45689 | 4.44272 | 663 ft | 148 kts | 67° |
| 2026-04-30 18:14 | 50.46444 | 4.46874 | 593 ft | 39 kts | 66° |
| 2026-04-30 18:15 | 50.46677 | 4.47439 | 593 ft | 3 kts | 341° |
| 2026-04-30 18:15 | 50.46705 | 4.47421 | 591 ft | 1 kts | 337° |
| 2026-04-30 18:16 | 50.46725 | 4.47408 | 590 ft | 3 kts | 336° |
| 2026-04-30 18:16 | 50.46734 | 4.47402 | 590 ft | 0 kts | 336° |
| 2026-04-30 18:17 | 50.46788 | 4.47364 | 588 ft | 8 kts | 335° |
| 2026-04-30 18:18 | 50.46823 | 4.47302 | 587 ft | 8 kts | 268° |
| 2026-04-30 18:18 | 50.46801 | 4.47219 | 588 ft | 8 kts | 245° |
| 2026-04-30 18:18 | 50.46785 | 4.47166 | 588 ft | 8 kts | 245° |
| 2026-04-30 18:18 | 50.46763 | 4.47089 | 587 ft | 8 kts | 245° |
| 2026-04-30 18:19 | 50.46741 | 4.47014 | 587 ft | 8 kts | 245° |
| 2026-04-30 18:19 | 50.46731 | 4.46938 | 587 ft | 7 kts | 296° |
| 2026-04-30 18:19 | 50.46777 | 4.46895 | 584 ft | 4 kts | 337° |
| 2026-04-30 18:19 | 50.46801 | 4.46878 | 584 ft | 3 kts | 335° |
| 2026-04-30 18:20 | 50.46802 | 4.46877 | 584 ft | 1 kts | 335° |
| 2026-04-30 18:20 | 50.46804 | 4.46876 | 584 ft | 0 kts | 335° |